Time;durP1;ratioP1;P1;durP2;ratioP2;P2;SDS_P1;SDS_P2;PMS_P1;PMS_P2;Temp;Humidity;BMP_temperature;BMP_pressure;BME280_temperature;BME280_humidity;BME280_pressure;Samples;Min_cycle;Max_cycle;Signal;HPM_P1;HPM_P2
2022/10/15 00:02:16;;;;;;;0.63;0.63;;;;;;;14.35;100.00;99721.50;5013992;28;20662;-69
2022/10/15 00:04:43;;;;;;;0.40;0.40;;;;;;;14.40;100.00;99718.75;5013877;28;20194;-68
2022/10/15 00:07:10;;;;;;;0.50;0.50;;;;;;;14.37;100.00;99717.16;5017545;28;20230;-68
2022/10/15 00:09:37;;;;;;;0.60;0.60;;;;;;;14.36;100.00;99712.88;5033510;28;20597;-68
2022/10/15 00:12:04;;;;;;;0.40;0.40;;;;;;;14.42;100.00;99717.78;5018154;28;20216;-69
2022/10/15 00:14:31;;;;;;;0.57;0.57;;;;;;;14.44;100.00;99715.16;5020915;28;20683;-68
2022/10/15 00:16:58;;;;;;;0.60;0.60;;;;;;;14.37;100.00;99714.56;5021541;28;20206;-68
2022/10/15 00:19:26;;;;;;;0.50;0.50;;;;;;;14.41;100.00;99716.09;5030712;28;20202;-68
2022/10/15 00:21:53;;;;;;;0.40;0.40;;;;;;;14.29;100.00;99685.63;5024843;28;20202;-69
2022/10/15 00:24:20;;;;;;;0.60;0.60;;;;;;;14.47;100.00;99715.88;5033265;28;20201;-68
2022/10/15 00:26:47;;;;;;;0.53;0.53;;;;;;;14.36;100.00;99692.25;5028365;28;20704;-68
2022/10/15 00:29:13;;;;;;;0.63;0.63;;;;;;;14.48;100.00;99703.78;5031249;28;20205;-68
2022/10/15 00:31:40;;;;;;;0.40;0.40;;;;;;;14.44;100.00;99700.50;5021890;28;20209;-68
2022/10/15 00:34:07;;;;;;;0.70;0.70;;;;;;;14.49;100.00;99703.75;5028168;28;20232;-68
2022/10/15 00:36:36;;;;;;;0.50;0.50;;;;;;;14.53;100.00;99700.13;5028140;28;20204;-68
2022/10/15 00:39:05;;;;;;;0.60;0.60;;;;;;;14.58;100.00;99702.50;5031822;28;20193;-68
2022/10/15 00:41:34;;;;;;;0.60;0.60;;;;;;;14.58;100.00;99698.19;5031380;28;20213;-68
2022/10/15 00:44:03;;;;;;;0.40;0.40;;;;;;;14.58;100.00;99697.34;5029129;28;20202;-68
2022/10/15 00:46:34;;;;;;;0.50;0.50;;;;;;;14.63;100.00;99696.28;5031746;28;20201;-68
2022/10/15 00:49:05;;;;;;;0.50;0.50;;;;;;;14.61;100.00;99698.06;5028299;28;20198;-68
2022/10/15 00:51:37;;;;;;;0.70;0.70;;;;;;;14.64;100.00;99697.09;5023798;28;20198;-68
2022/10/15 00:54:04;;;;;;;0.40;0.40;;;;;;;14.60;100.00;99695.56;5024801;28;20205;-68
2022/10/15 00:56:32;;;;;;;0.50;0.50;;;;;;;14.62;100.00;99698.91;5032654;28;20678;-68
2022/10/15 00:59:00;;;;;;;0.47;0.47;;;;;;;14.59;100.00;99689.56;5031559;28;20616;-68
2022/10/15 01:01:27;;;;;;;0.40;0.40;;;;;;;14.61;100.00;99687.75;5032334;28;20222;-68
2022/10/15 01:03:55;;;;;;;0.50;0.50;;;;;;;14.58;100.00;99682.72;5023016;28;20203;-68
2022/10/15 01:06:23;;;;;;;0.50;0.50;;;;;;;14.57;100.00;99686.19;5026045;28;20229;-68
2022/10/15 01:08:51;;;;;;;0.40;0.40;;;;;;;14.57;100.00;99690.53;5019376;28;20206;-68
2022/10/15 01:11:34;;;;;;;0.60;0.60;;;;;;;14.57;100.00;99686.19;5020569;28;20263;-68
2022/10/15 01:14:12;;;;;;;0.50;0.50;;;;;;;14.52;100.00;99688.13;5016925;28;20217;-68
2022/10/15 01:16:45;;;;;;;0.40;0.40;;;;;;;14.54;100.00;99683.75;5032377;28;20201;-68
2022/10/15 01:19:28;;;;;;;0.53;0.53;;;;;;;14.55;100.00;99682.00;5026467;28;20198;-68
2022/10/15 01:22:04;;;;;;;1.40;1.40;;;;;;;14.58;100.00;99687.03;5032210;28;20218;-68
2022/10/15 01:24:56;;;;;;;0.50;0.50;;;;;;;14.59;100.00;99683.56;5032479;28;20208;-69
2022/10/15 01:27:36;;;;;;;0.43;0.43;;;;;;;14.59;100.00;99678.41;5032754;28;20201;-68
2022/10/15 01:30:23;;;;;;;0.43;0.43;;;;;;;14.52;100.00;99677.81;5026351;28;20205;-68
2022/10/15 01:33:12;;;;;;;0.67;0.67;;;;;;;14.59;100.00;99684.41;5008667;28;20201;-68
2022/10/15 01:35:47;;;;;;;0.60;0.60;;;;;;;14.60;100.00;99686.06;5018877;28;20201;-68
2022/10/15 01:38:23;;;;;;;0.40;0.40;;;;;;;14.63;100.00;99685.13;5026192;28;20208;-68
2022/10/15 01:40:55;;;;;;;0.50;0.50;;;;;;;14.59;100.00;99689.56;5026591;28;20216;-68
2022/10/15 01:43:28;;;;;;;0.67;0.67;;;;;;;14.57;100.00;99686.19;5024383;28;20299;-68
2022/10/15 01:46:01;;;;;;;0.57;0.57;;;;;;;14.48;100.00;99689.16;5023623;28;20221;-68
2022/10/15 01:48:31;;;;;;;0.60;0.60;;;;;;;14.46;100.00;99688.41;5031972;28;20212;-68
2022/10/15 01:51:01;;;;;;;0.50;0.50;;;;;;;14.41;100.00;99686.91;5031584;28;20193;-68
2022/10/15 01:53:29;;;;;;;0.50;0.50;;;;;;;14.42;100.00;99686.00;5026570;28;20675;-68
2022/10/15 01:55:59;;;;;;;0.60;0.60;;;;;;;14.28;100.00;99683.94;5023738;28;20306;-68
2022/10/15 01:58:27;;;;;;;0.63;0.63;;;;;;;14.16;100.00;99671.53;5025824;28;20194;-68
2022/10/15 02:00:58;;;;;;;0.43;0.43;;;;;;;14.20;100.00;99680.84;5011821;28;20213;-68
2022/10/15 02:03:25;;;;;;;0.50;0.50;;;;;;;14.15;100.00;99677.63;5025201;28;20205;-69
2022/10/15 02:05:59;;;;;;;0.60;0.60;;;;;;;14.16;100.00;99685.28;5020870;28;20237;-68
2022/10/15 02:08:34;;;;;;;0.60;0.60;;;;;;;14.17;100.00;99683.53;5026067;28;20208;-69
2022/10/15 02:11:05;;;;;;;0.40;0.40;;;;;;;14.11;100.00;99684.66;5021277;28;20208;-68
2022/10/15 02:13:42;;;;;;;0.47;0.47;;;;;;;14.13;100.00;99684.56;5025236;28;20220;-68
2022/10/15 02:16:16;;;;;;;0.60;0.60;;;;;;;14.12;100.00;99678.56;5027148;28;20208;-68
2022/10/15 02:18:49;;;;;;;0.60;0.60;;;;;;;14.14;100.00;99683.66;5027058;28;20200;-68
2022/10/15 02:21:20;;;;;;;0.50;0.50;;;;;;;14.15;100.00;99682.78;5018280;28;20225;-68
2022/10/15 02:23:52;;;;;;;0.50;0.50;;;;;;;14.20;100.00;99686.00;5028886;28;20673;-68
2022/10/15 02:26:21;;;;;;;0.40;0.40;;;;;;;14.21;100.00;99682.53;5031078;28;20201;-68
2022/10/15 02:28:54;;;;;;;0.50;0.50;;;;;;;14.17;100.00;99678.38;5029796;28;20669;-68
2022/10/15 02:31:24;;;;;;;0.50;0.50;;;;;;;14.12;100.00;99683.72;5027290;28;20806;-68
2022/10/15 02:33:55;;;;;;;0.50;0.50;;;;;;;14.09;100.00;99677.84;5024097;28;20208;-68
2022/10/15 02:36:22;;;;;;;0.50;0.50;;;;;;;14.08;100.00;99683.91;5027155;28;20204;-69
2022/10/15 02:38:51;;;;;;;0.50;0.50;;;;;;;14.09;100.00;99683.84;5029432;28;20208;-68
2022/10/15 02:41:18;;;;;;;0.43;0.43;;;;;;;14.11;100.00;99691.53;5028713;28;20217;-69
2022/10/15 02:43:47;;;;;;;0.60;0.60;;;;;;;14.11;100.00;99682.06;5029544;28;20296;-68
2022/10/15 02:46:15;;;;;;;0.50;0.50;;;;;;;14.10;100.00;99679.53;5023787;28;20201;-68
2022/10/15 02:48:44;;;;;;;0.60;0.60;;;;;;;14.06;100.00;99677.97;5029201;28;20198;-68
2022/10/15 02:51:11;;;;;;;0.47;0.47;;;;;;;13.91;100.00;99658.81;5018433;28;20198;-68
2022/10/15 02:53:37;;;;;;;0.40;0.40;;;;;;;14.07;100.00;99679.66;5030444;28;20221;-68
2022/10/15 02:56:05;;;;;;;0.60;0.60;;;;;;;14.02;100.00;99681.59;5019900;28;20210;-68
2022/10/15 02:58:31;;;;;;;0.60;0.60;;;;;;;14.02;100.00;99686.75;5020515;28;20560;-68
2022/10/15 03:00:58;;;;;;;0.40;0.40;;;;;;;14.04;100.00;99684.94;5021754;28;20225;-69
2022/10/15 03:03:25;;;;;;;0.67;0.67;;;;;;;14.01;100.00;99680.75;5019732;28;20202;-69
2022/10/15 03:05:53;;;;;;;0.60;0.60;;;;;;;13.98;100.00;99680.03;5023103;28;20713;-69
2022/10/15 03:08:20;;;;;;;0.77;0.77;;;;;;;13.98;100.00;99680.03;5010094;28;20206;-68
2022/10/15 03:10:47;;;;;;;0.70;0.70;;;;;;;13.98;100.00;99685.19;5010612;28;20193;-69
2022/10/15 03:13:14;;;;;;;0.60;0.60;;;;;;;13.98;100.00;99680.03;5014625;28;20209;-69
2022/10/15 03:15:41;;;;;;;0.50;0.50;;;;;;;14.01;100.00;99683.31;5012259;28;20582;-68
2022/10/15 03:18:08;;;;;;;0.43;0.43;;;;;;;14.00;100.00;99684.22;5013815;28;20200;-68
2022/10/15 03:20:35;;;;;;;0.50;0.50;;;;;;;14.03;100.00;99683.25;5018441;28;20201;-69
2022/10/15 03:23:03;;;;;;;0.53;0.53;;;;;;;14.08;100.00;99686.50;5029669;28;20198;-68
2022/10/15 03:25:30;;;;;;;0.80;0.80;;;;;;;14.07;100.00;99684.81;5010500;28;20204;-68
2022/10/15 03:27:57;;;;;;;0.50;0.50;;;;;;;14.07;100.00;99688.25;5013153;28;20205;-68
2022/10/15 03:30:24;;;;;;;0.57;0.57;;;;;;;14.08;100.00;99686.50;5010334;28;20193;-68
2022/10/15 03:32:50;;;;;;;0.50;0.50;;;;;;;14.04;100.00;99695.25;5010538;28;20616;-68
2022/10/15 03:35:17;;;;;;;0.53;0.53;;;;;;;13.96;100.00;99676.66;5014682;28;20244;-68
2022/10/15 03:37:44;;;;;;;0.60;0.60;;;;;;;14.02;100.00;99694.47;5025113;28;20277;-69
2022/10/15 03:40:13;;;;;;;0.70;0.70;;;;;;;13.99;100.00;99698.00;5014017;28;20202;-68
2022/10/15 03:42:39;;;;;;;0.50;0.50;;;;;;;13.96;100.00;99692.13;5018041;28;20218;-69
2022/10/15 03:45:08;;;;;;;0.40;0.40;;;;;;;13.96;100.00;99692.13;5021778;28;20255;-68
2022/10/15 03:47:35;;;;;;;0.53;0.53;;;;;;;13.98;100.00;99696.34;5022477;28;20230;-68
2022/10/15 03:50:02;;;;;;;0.70;0.70;;;;;;;13.98;100.00;99698.06;5010169;28;20206;-68
2022/10/15 03:52:28;;;;;;;0.50;0.50;;;;;;;13.97;100.00;99693.81;5009634;28;20552;-68
2022/10/15 03:54:55;;;;;;;0.60;0.60;;;;;;;14.00;100.00;99704.00;5020071;28;20218;-68
2022/10/15 03:57:23;;;;;;;0.67;0.67;;;;;;;14.03;100.00;99698.72;5027791;28;20205;-68
2022/10/15 03:59:50;;;;;;;0.50;0.50;;;;;;;14.05;100.00;99691.78;5016900;28;20205;-69
2022/10/15 04:02:17;;;;;;;0.50;0.50;;;;;;;14.02;100.00;99682.41;5008695;28;20787;-68
2022/10/15 04:04:44;;;;;;;0.50;0.50;;;;;;;13.97;100.00;99688.66;5015856;28;20209;-69
2022/10/15 04:07:11;;;;;;;0.40;0.40;;;;;;;14.02;100.00;99694.47;5010877;28;20242;-68
2022/10/15 04:09:38;;;;;;;0.63;0.63;;;;;;;13.94;100.00;99683.63;5009775;28;20200;-68
2022/10/15 04:12:05;;;;;;;0.50;0.50;;;;;;;14.03;100.00;99698.72;5010116;28;20261;-68
2022/10/15 04:14:34;;;;;;;0.63;0.63;;;;;;;14.06;100.00;99690.84;5010176;28;20202;-68
2022/10/15 04:17:00;;;;;;;0.50;0.50;;;;;;;14.06;100.00;99698.59;5012241;28;20543;-68
2022/10/15 04:19:28;;;;;;;0.50;0.50;;;;;;;13.96;100.00;99686.97;5013521;28;20202;-68
2022/10/15 04:21:54;;;;;;;0.50;0.50;;;;;;;14.07;100.00;99695.13;5009740;28;20275;-68
2022/10/15 04:24:21;;;;;;;0.70;0.70;;;;;;;14.07;100.00;99692.53;5012642;28;20202;-69
2022/10/15 04:26:48;;;;;;;0.40;0.40;;;;;;;14.11;100.00;99697.53;5011249;28;20203;-68
2022/10/15 04:29:16;;;;;;;1.17;1.17;;;;;;;14.15;100.00;99693.09;5014935;28;20213;-68
2022/10/15 04:31:44;;;;;;;0.50;0.50;;;;;;;14.18;100.00;99693.78;5020419;28;20213;-68
2022/10/15 04:34:12;;;;;;;0.70;0.70;;;;;;;14.14;100.00;99681.09;5018167;28;20205;-68
2022/10/15 04:36:38;;;;;;;0.67;0.67;;;;;;;14.19;100.00;99699.78;5019210;28;20594;-69
2022/10/15 04:39:05;;;;;;;0.67;0.67;;;;;;;14.11;100.00;99683.78;5011724;28;20210;-69
2022/10/15 04:41:32;;;;;;;0.50;0.50;;;;;;;14.19;100.00;99700.63;5013120;28;20225;-68
2022/10/15 04:43:59;;;;;;;0.47;0.47;;;;;;;14.20;100.00;99692.00;5012762;28;20211;-68
2022/10/15 04:46:26;;;;;;;0.60;0.60;;;;;;;14.22;100.00;99698.84;5013784;28;20203;-69
2022/10/15 04:48:56;;;;;;;0.57;0.57;;;;;;;14.22;100.00;99701.44;5013095;28;20582;-69
2022/10/15 04:51:24;;;;;;;0.50;0.50;;;;;;;14.22;100.00;99704.00;5013170;28;20582;-69
2022/10/15 04:53:51;;;;;;;0.70;0.70;;;;;;;14.25;100.00;99709.84;5013640;28;20208;-69
2022/10/15 04:56:20;;;;;;;0.60;0.60;;;;;;;14.28;100.00;99708.91;5013111;28;20220;-68
2022/10/15 04:58:48;;;;;;;0.50;0.50;;;;;;;14.28;100.00;99704.56;5019347;28;20208;-69
2022/10/15 05:01:16;;;;;;;0.30;0.30;;;;;;;14.29;100.00;99711.41;5009957;28;20226;-69
2022/10/15 05:03:45;;;;;;;0.93;0.93;;;;;;;14.28;100.00;99712.31;5014584;28;20222;-69
2022/10/15 05:06:15;;;;;;;0.50;0.50;;;;;;;14.20;100.00;99696.31;5012486;28;20332;-68
2022/10/15 05:08:43;;;;;;;0.50;0.50;;;;;;;14.27;100.00;99704.66;5012739;28;20200;-68
2022/10/15 05:11:12;;;;;;;0.57;0.57;;;;;;;14.26;100.00;99706.38;5011274;28;20205;-68
2022/10/15 05:13:39;;;;;;;0.60;0.60;;;;;;;14.21;100.00;99713.47;5012681;28;20198;-68
2022/10/15 05:16:12;;;;;;;0.63;0.63;;;;;;;14.09;100.00;99713.94;5014441;28;20205;-68
2022/10/15 05:18:39;;;;;;;0.40;0.40;;;;;;;14.03;100.00;99703.88;5012681;28;20716;-68
2022/10/15 05:21:06;;;;;;;0.60;0.60;;;;;;;14.09;100.00;99719.94;5012009;28;20206;-68
2022/10/15 05:23:35;;;;;;;0.50;0.50;;;;;;;14.04;100.00;99716.72;5012406;28;20202;-68
2022/10/15 05:26:03;;;;;;;0.50;0.50;;;;;;;14.05;100.00;99718.41;5012699;28;20293;-68
2022/10/15 05:28:30;;;;;;;0.50;0.50;;;;;;;14.05;100.00;99727.88;5013744;28;20274;-69
2022/10/15 05:31:03;;;;;;;0.47;0.47;;;;;;;14.02;100.00;99733.16;5011840;28;20590;-69
2022/10/15 05:33:29;;;;;;;0.40;0.40;;;;;;;14.03;100.00;99735.66;5012325;28;20588;-69
2022/10/15 05:35:56;;;;;;;0.80;0.80;;;;;;;14.02;100.00;99728.00;5012433;28;20633;-69
2022/10/15 05:38:23;;;;;;;0.67;0.67;;;;;;;14.01;100.00;99732.31;5012085;28;20197;-68
2022/10/15 05:40:51;;;;;;;1.30;1.27;;;;;;;14.07;100.00;99742.38;5012209;28;20285;-69
2022/10/15 05:43:18;;;;;;;0.57;0.57;;;;;;;14.00;100.00;99734.94;5013199;28;20221;-68
2022/10/15 05:45:45;;;;;;;0.50;0.50;;;;;;;14.08;100.00;99743.22;5012026;28;20195;-69
2022/10/15 05:48:11;;;;;;;0.47;0.47;;;;;;;14.14;100.00;99748.13;5013177;28;20563;-69
2022/10/15 05:50:38;;;;;;;0.50;0.50;;;;;;;14.15;100.00;99748.06;5013490;28;20198;-68
2022/10/15 05:53:05;;;;;;;0.43;0.43;;;;;;;14.20;100.00;99760.78;5009308;28;20217;-69
2022/10/15 05:55:32;;;;;;;0.50;0.50;;;;;;;14.17;100.00;99754.00;5011481;28;20202;-68
2022/10/15 05:58:03;;;;;;;0.60;0.60;;;;;;;14.22;100.00;99756.38;5006392;28;20198;-68
2022/10/15 06:00:30;;;;;;;0.60;0.60;;;;;;;14.25;100.00;99756.28;5009145;28;20232;-68
2022/10/15 06:02:57;;;;;;;0.43;0.43;;;;;;;14.26;100.00;99755.38;5013499;28;20229;-69
2022/10/15 06:05:25;;;;;;;0.60;0.60;;;;;;;14.23;100.00;99758.06;5010089;28;20729;-68
2022/10/15 06:07:51;;;;;;;0.40;0.40;;;;;;;14.19;100.00;99757.34;5009804;28;20736;-69
2022/10/15 06:10:19;;;;;;;0.70;0.70;;;;;;;14.25;100.00;99761.44;5011409;28;20678;-68
2022/10/15 06:12:50;;;;;;;0.60;0.60;;;;;;;14.21;100.00;99754.72;5010377;28;20198;-69
2022/10/15 06:15:19;;;;;;;0.50;0.50;;;;;;;14.15;100.00;99745.47;5011232;28;20342;-69
2022/10/15 06:17:46;;;;;;;0.60;0.60;;;;;;;14.21;100.00;99757.31;5011190;28;20254;-69
2022/10/15 06:20:13;;;;;;;0.70;0.70;;;;;;;14.22;100.00;99761.53;5011315;28;20238;-69
2022/10/15 06:22:40;;;;;;;0.57;0.57;;;;;;;14.27;100.00;99766.53;5011401;28;20218;-74
2022/10/15 06:25:08;;;;;;;0.53;0.53;;;;;;;14.27;100.00;99772.53;5011478;28;20198;-71
2022/10/15 06:27:35;;;;;;;0.40;0.40;;;;;;;14.26;100.00;99775.16;5010936;28;20209;-67
2022/10/15 06:30:01;;;;;;;0.50;0.50;;;;;;;14.26;100.00;99773.44;5006630;28;20582;-67
2022/10/15 06:32:30;;;;;;;0.50;0.50;;;;;;;14.25;100.00;99776.09;5010150;28;21523;-67
2022/10/15 06:34:57;;;;;;;0.43;0.43;;;;;;;14.21;100.00;99780.50;5009778;28;20208;-67
2022/10/15 06:37:24;;;;;;;0.60;0.60;;;;;;;14.22;100.00;99784.75;5010717;28;20678;-67
2022/10/15 06:39:50;;;;;;;0.50;0.50;;;;;;;14.20;100.00;99774.53;5010322;28;20206;-67
2022/10/15 06:42:17;;;;;;;0.50;0.50;;;;;;;14.19;100.00;99785.72;5009298;28;20224;-67
2022/10/15 06:44:44;;;;;;;0.60;0.60;;;;;;;14.26;100.00;99783.75;5010003;28;20201;-67
2022/10/15 06:47:11;;;;;;;0.87;0.87;;;;;;;14.25;100.00;99781.25;5009021;28;20210;-68
2022/10/15 06:49:39;;;;;;;0.50;0.50;;;;;;;14.27;100.00;99782.84;5009370;28;20281;-67
2022/10/15 06:52:06;;;;;;;0.43;0.43;;;;;;;14.30;100.00;99782.72;5009780;28;20643;-67
2022/10/15 06:54:33;;;;;;;0.67;0.67;;;;;;;14.35;100.00;99782.56;5009521;28;20225;-67
2022/10/15 06:56:59;;;;;;;0.53;0.53;;;;;;;14.38;100.00;99785.88;5010429;28;20302;-67
2022/10/15 06:59:26;;;;;;;0.30;0.30;;;;;;;14.41;100.00;99783.16;5010006;28;20244;-67
2022/10/15 07:01:53;;;;;;;0.40;0.40;;;;;;;14.47;100.00;99788.09;5010454;28;20601;-67
2022/10/15 07:04:20;;;;;;;0.50;0.50;;;;;;;14.50;100.00;99787.97;5004731;28;20213;-68
2022/10/15 07:06:48;;;;;;;0.63;0.63;;;;;;;14.58;100.00;99796.25;5027633;28;20620;-67
2022/10/15 07:09:15;;;;;;;0.50;0.50;;;;;;;14.62;100.00;99786.63;5022901;28;20716;-67
2022/10/15 07:11:41;;;;;;;0.53;0.53;;;;;;;14.68;100.00;99784.66;5028415;28;20197;-67
2022/10/15 07:14:08;;;;;;;0.50;0.50;;;;;;;14.75;100.00;99786.97;5027569;28;20201;-67
2022/10/15 07:16:36;;;;;;;0.40;0.40;;;;;;;14.88;100.00;99793.31;5028004;28;20206;-67
2022/10/15 07:19:03;;;;;;;0.47;0.47;;;;;;;14.96;100.00;99786.91;5026454;28;20293;-67
2022/10/15 07:21:30;;;;;;;0.53;0.53;;;;;;;14.99;100.00;99775.66;5020489;28;20206;-67
2022/10/15 07:23:59;;;;;;;0.47;0.47;;;;;;;15.16;100.00;99793.84;5023474;28;20631;-67
2022/10/15 07:26:28;;;;;;;0.63;0.63;;;;;;;15.30;100.00;99786.34;5027268;28;20581;-67
2022/10/15 07:28:55;;;;;;;0.67;0.67;;;;;;;15.43;100.00;99782.31;5017912;28;20220;-67
2022/10/15 07:31:21;;;;;;;0.97;0.97;;;;;;;15.56;100.00;99785.22;5015295;28;20209;-68
2022/10/15 07:33:49;;;;;;;0.50;0.50;;;;;;;15.61;100.00;99781.53;5029983;28;20207;-67
2022/10/15 07:36:16;;;;;;;0.70;0.70;;;;;;;15.82;100.00;99794.41;5030282;28;20230;-68
2022/10/15 07:38:43;;;;;;;0.57;0.57;;;;;;;16.04;100.00;99795.09;5029995;28;20212;-68
2022/10/15 07:41:11;;;;;;;0.60;0.60;;;;;;;16.19;100.00;99802.13;5026719;28;20211;-67
2022/10/15 07:43:38;;;;;;;0.53;0.53;;;;;;;16.29;100.00;99800.81;5025725;28;20225;-66
2022/10/15 07:46:06;;;;;;;0.50;0.50;;;;;;;16.38;100.00;99804.72;5019632;28;20596;-68
2022/10/15 07:48:33;;;;;;;0.43;0.43;;;;;;;16.47;100.00;99799.97;5012202;28;20566;-67
2022/10/15 07:51:01;;;;;;;0.50;0.50;;;;;;;16.64;100.00;99797.41;5019089;28;20193;-67
2022/10/15 07:53:28;;;;;;;0.40;0.40;;;;;;;16.82;100.00;99795.69;5018178;28;20210;-68
2022/10/15 07:55:59;;;;;;;0.50;0.50;;;;;;;17.05;100.00;99792.78;5010871;28;20213;-68
2022/10/15 07:58:29;;;;;;;0.53;0.53;;;;;;;17.22;100.00;99795.34;5027835;28;20690;-68
2022/10/15 08:00:56;;;;;;;0.50;0.50;;;;;;;17.38;100.00;99799.75;5023956;28;20282;-68
2022/10/15 08:03:22;;;;;;;0.70;0.70;;;;;;;17.55;100.00;99798.00;5034823;28;20689;-68
2022/10/15 08:05:52;;;;;;;0.47;0.47;;;;;;;17.64;100.00;99807.88;5033696;28;20319;-68
2022/10/15 08:08:19;;;;;;;0.70;0.70;;;;;;;17.84;100.00;99805.06;5033914;28;20614;-68
2022/10/15 08:10:46;;;;;;;0.60;0.60;;;;;;;17.80;100.00;99777.63;5033472;28;20212;-68
2022/10/15 08:13:13;;;;;;;0.50;0.50;;;;;;;18.11;100.00;99813.13;5031909;28;20197;-64
2022/10/15 08:15:43;;;;;;;0.43;0.43;;;;;;;18.27;100.00;99803.59;5011752;28;20193;-63
2022/10/15 08:18:10;;;;;;;0.73;0.73;;;;;;;18.39;100.00;99804.66;5018870;28;20209;-64
2022/10/15 08:20:37;;;;;;;0.40;0.40;;;;;;;18.59;99.33;99804.41;5026169;28;20206;-64
2022/10/15 08:23:04;;;;;;;0.50;0.50;;;;;;;18.64;98.41;99807.56;5025903;28;20228;-64
2022/10/15 08:25:31;;;;;;;0.43;0.43;;;;;;;18.70;96.28;99806.41;5026272;28;20209;-64
2022/10/15 08:27:59;;;;;;;0.50;0.50;;;;;;;18.82;96.54;99803.09;5028301;28;20247;-64
2022/10/15 08:30:25;;;;;;;0.47;0.47;;;;;;;18.96;94.77;99803.16;5023648;28;20620;-64
2022/10/15 08:32:54;;;;;;;0.50;0.50;;;;;;;18.96;92.41;99803.16;5027144;28;20205;-64
2022/10/15 08:35:21;;;;;;;0.50;0.50;;;;;;;18.97;93.18;99798.78;5028757;28;20202;-63
2022/10/15 08:37:48;;;;;;;0.50;0.50;;;;;;;18.95;96.22;99779.84;5021558;28;20252;-64
2022/10/15 08:40:15;;;;;;;1.20;1.20;;;;;;;19.24;95.36;99797.16;5026779;28;20670;-63
2022/10/15 08:42:46;;;;;;;0.40;0.40;;;;;;;19.17;92.04;99807.09;5026602;28;20213;-63
2022/10/15 08:45:17;;;;;;;0.50;0.50;;;;;;;19.22;89.51;99805.06;5024865;28;20205;-63
2022/10/15 08:47:48;;;;;;;0.60;0.60;;;;;;;19.28;90.98;99809.06;5023217;28;20209;-64
2022/10/15 08:50:26;;;;;;;0.50;0.50;;;;;;;19.31;90.61;99801.09;5022798;28;20565;-64
2022/10/15 08:52:54;;;;;;;0.40;0.40;;;;;;;19.46;86.41;99818.38;5015949;28;20252;-63
2022/10/15 08:55:22;;;;;;;0.40;0.40;;;;;;;19.63;85.96;99813.03;5018792;28;20701;-64
2022/10/15 08:57:56;;;;;;;0.50;0.50;;;;;;;19.73;84.53;99816.75;5026319;28;20201;-63
2022/10/15 09:00:24;;;;;;;0.60;0.60;;;;;;;19.95;86.56;99821.44;5022974;28;20201;-64
2022/10/15 09:02:58;;;;;;;0.53;0.53;;;;;;;20.00;84.87;99824.59;5021301;28;20286;-63
2022/10/15 09:05:36;;;;;;;0.40;0.40;;;;;;;20.18;82.55;99827.84;5023524;28;20231;-64
2022/10/15 09:08:14;;;;;;;0.50;0.50;;;;;;;20.26;83.84;99823.84;5023538;28;20573;-64
2022/10/15 09:10:47;;;;;;;0.60;0.60;;;;;;;20.21;83.11;99828.47;5023430;28;20202;-63
2022/10/15 09:13:20;;;;;;;0.60;0.60;;;;;;;20.35;84.99;99817.22;5016608;28;20204;-63
2022/10/15 09:15:51;;;;;;;0.30;0.30;;;;;;;20.36;80.55;99834.50;5026189;28;20232;-64
2022/10/15 09:18:22;;;;;;;0.50;0.50;;;;;;;20.43;82.51;99828.81;5020583;28;20217;-63
2022/10/15 09:20:52;;;;;;;0.40;0.40;;;;;;;20.48;82.88;99825.94;5021261;28;20719;-64
2022/10/15 09:23:21;;;;;;;0.37;0.37;;;;;;;20.66;83.03;99827.34;5029308;28;20251;-63
2022/10/15 09:25:58;;;;;;;0.40;0.40;;;;;;;20.72;78.19;99829.53;5024213;28;20203;-63
2022/10/15 09:28:31;;;;;;;0.50;0.50;;;;;;;20.72;79.08;99821.72;5020979;28;20197;-63
2022/10/15 09:30:59;;;;;;;0.30;0.30;;;;;;;20.75;77.37;99823.28;5023138;28;20201;-64
2022/10/15 09:33:35;;;;;;;0.33;0.33;;;;;;;20.86;75.25;99813.84;5028834;28;20209;-64
2022/10/15 09:36:14;;;;;;;0.40;0.40;;;;;;;21.10;76.21;99818.44;5016862;28;20668;-64
2022/10/15 09:38:53;;;;;;;0.47;0.47;;;;;;;21.24;69.17;99823.53;5026970;28;20218;-63
2022/10/15 09:41:31;;;;;;;0.50;0.50;;;;;;;21.29;69.71;99818.84;5029788;28;20202;-67
2022/10/15 09:44:01;;;;;;;0.40;0.40;;;;;;;21.33;68.26;99820.28;5023369;28;20221;-63
2022/10/15 09:46:28;;;;;;;0.30;0.30;;;;;;;21.42;71.19;99817.09;5017179;28;20263;-64
2022/10/15 09:49:03;;;;;;;0.40;0.40;;;;;;;21.31;68.97;99815.19;5017839;28;20209;-64
2022/10/15 09:51:35;;;;;;;0.50;0.50;;;;;;;21.37;71.55;99811.34;5017183;28;20203;-66
2022/10/15 09:54:09;;;;;;;0.40;0.40;;;;;;;21.23;66.65;99806.22;5020199;28;20216;-64
2022/10/15 09:56:40;;;;;;;0.33;0.33;;;;;;;21.14;68.11;99814.66;5020506;28;20678;-64
2022/10/15 09:59:07;;;;;;;0.50;0.50;;;;;;;21.15;69.43;99803.28;5020156;28;20226;-63
2022/10/15 10:01:33;;;;;;;0.50;0.50;;;;;;;21.17;66.82;99806.63;5013848;28;20730;-64
2022/10/15 10:04:13;;;;;;;0.40;0.40;;;;;;;21.16;66.35;99802.38;5023583;28;20217;-63
2022/10/15 10:06:47;;;;;;;0.50;0.50;;;;;;;21.23;67.05;99803.59;5020337;28;20233;-63
2022/10/15 10:09:19;;;;;;;0.50;0.50;;;;;;;21.14;65.00;99789.41;5019889;28;20922;-63
2022/10/15 10:11:48;;;;;;;0.40;0.40;;;;;;;21.28;63.57;99806.75;5017531;28;20206;-64
2022/10/15 10:14:26;;;;;;;0.40;0.40;;;;;;;21.28;65.33;99802.38;5017936;28;20573;-63
2022/10/15 10:17:14;;;;;;;0.30;0.30;;;;;;;21.35;62.63;99802.78;5021006;28;20289;-64
2022/10/15 10:19:41;;;;;;;0.40;0.40;;;;;;;21.46;62.32;99787.22;5024660;28;20665;-64
2022/10/15 10:22:15;;;;;;;0.33;0.33;;;;;;;21.58;60.27;99803.81;5022017;28;20212;-64
2022/10/15 10:24:42;;;;;;;0.40;0.40;;;;;;;21.20;59.64;99793.38;5016348;28;20230;-64
2022/10/15 10:27:20;;;;;;;0.30;0.30;;;;;;;21.25;60.50;99793.91;5026182;28;20215;-65
2022/10/15 10:29:52;;;;;;;0.40;0.40;;;;;;;21.16;59.73;99760.66;5019498;28;20296;-70
2022/10/15 10:32:22;;;;;;;0.30;0.30;;;;;;;21.45;59.18;99789.00;5016177;28;20438;-65
2022/10/15 10:34:50;;;;;;;0.40;0.40;;;;;;;21.43;61.03;99790.88;5020943;28;20231;-66
2022/10/15 10:37:18;;;;;;;0.50;0.50;;;;;;;21.28;60.99;99791.09;5024283;28;20193;-65
2022/10/15 10:39:46;;;;;;;0.40;0.40;;;;;;;21.28;62.51;99784.13;5027186;28;20207;-65
2022/10/15 10:42:37;;;;;;;0.37;0.37;;;;;;;21.08;62.22;99781.13;5017260;28;20216;-65
2022/10/15 10:45:19;;;;;;;0.50;0.50;;;;;;;20.95;62.21;99779.34;5017865;28;20228;-66
2022/10/15 10:47:46;;;;;;;0.40;0.40;;;;;;;20.97;62.83;99773.22;5018101;28;20217;-65
2022/10/15 10:50:29;;;;;;;0.37;0.37;;;;;;;21.14;62.64;99762.50;5022801;28;20221;-66
2022/10/15 10:52:58;;;;;;;0.40;0.40;;;;;;;21.23;62.10;99762.72;5027281;28;20195;-66
2022/10/15 10:55:34;;;;;;;0.40;0.40;;;;;;;21.12;61.23;99765.22;5018498;28;20582;-65
2022/10/15 10:58:02;;;;;;;0.30;0.30;;;;;;;21.21;61.54;99762.00;5027955;28;20621;-66
2022/10/15 11:00:37;;;;;;;0.40;0.40;;;;;;;21.04;60.08;99770.06;5023083;28;20678;-65
2022/10/15 11:03:04;;;;;;;0.30;0.30;;;;;;;21.04;60.70;99766.63;5023186;28;20202;-65
2022/10/15 11:05:35;;;;;;;0.50;0.50;;;;;;;20.90;60.21;99760.56;5022649;28;20322;-65
2022/10/15 11:08:14;;;;;;;0.37;0.37;;;;;;;20.88;60.38;99766.84;5028351;28;20676;-65
2022/10/15 11:10:49;;;;;;;0.40;0.40;;;;;;;20.85;61.79;99749.63;5030541;28;20193;-66
2022/10/15 11:13:34;;;;;;;0.50;0.50;;;;;;;20.90;62.54;99744.94;5021128;28;20574;-65
2022/10/15 11:16:06;;;;;;;0.37;0.37;;;;;;;21.05;62.38;99753.50;5029690;28;20200;-65
2022/10/15 11:18:49;;;;;;;0.30;0.30;;;;;;;21.10;63.07;99761.06;5026656;28;20206;-65
2022/10/15 11:21:24;;;;;;;0.50;0.50;;;;;;;21.11;62.40;99758.34;5026600;28;20207;-65
2022/10/15 11:24:11;;;;;;;0.47;0.47;;;;;;;20.98;60.88;99741.81;5023051;28;20273;-65
2022/10/15 11:26:51;;;;;;;0.50;0.50;;;;;;;21.06;61.69;99747.38;5021716;28;20238;-66
2022/10/15 11:29:28;;;;;;;0.40;0.40;;;;;;;21.11;62.19;99747.06;5026384;28;20546;-65
2022/10/15 11:32:09;;;;;;;0.30;0.30;;;;;;;21.19;61.32;99737.81;5028664;28;20200;-65
2022/10/15 11:34:48;;;;;;;0.57;0.57;;;;;;;21.28;60.89;99741.56;5027981;28;20199;-65
2022/10/15 11:37:28;;;;;;;0.40;0.40;;;;;;;21.33;62.12;99731.63;5027352;28;20204;-65
2022/10/15 11:40:14;;;;;;;0.30;0.30;;;;;;;21.44;60.50;99729.13;5026764;28;20201;-66